sensor_id;sensor_type;location;lat;lon;timestamp;P1;durP1;ratioP1;P2;durP2;ratioP2
1603;SDS011;795;49.296;11.348;2022-08-01T00:01:12;3.00;;;2.80;;
1603;SDS011;795;49.296;11.348;2022-08-01T00:03:39;3.27;;;2.97;;
1603;SDS011;795;49.296;11.348;2022-08-01T00:06:06;4.50;;;3.77;;
1603;SDS011;795;49.296;11.348;2022-08-01T00:08:33;3.70;;;3.30;;
1603;SDS011;795;49.296;11.348;2022-08-01T00:11:00;4.97;;;3.63;;
1603;SDS011;795;49.296;11.348;2022-08-01T00:13:28;4.37;;;3.33;;
1603;SDS011;795;49.296;11.348;2022-08-01T00:15:55;3.60;;;3.17;;
1603;SDS011;795;49.296;11.348;2022-08-01T00:18:22;3.13;;;2.93;;
1603;SDS011;795;49.296;11.348;2022-08-01T00:20:49;4.80;;;3.17;;
1603;SDS011;795;49.296;11.348;2022-08-01T00:23:16;3.30;;;3.00;;
1603;SDS011;795;49.296;11.348;2022-08-01T00:25:43;4.67;;;3.60;;
1603;SDS011;795;49.296;11.348;2022-08-01T00:28:10;4.53;;;2.80;;
1603;SDS011;795;49.296;11.348;2022-08-01T00:30:37;3.90;;;3.47;;
1603;SDS011;795;49.296;11.348;2022-08-01T00:33:04;4.10;;;3.70;;
1603;SDS011;795;49.296;11.348;2022-08-01T00:35:31;6.20;;;3.47;;
1603;SDS011;795;49.296;11.348;2022-08-01T00:37:58;4.30;;;3.90;;
1603;SDS011;795;49.296;11.348;2022-08-01T00:40:25;4.70;;;4.00;;
1603;SDS011;795;49.296;11.348;2022-08-01T00:42:52;5.80;;;3.87;;
1603;SDS011;795;49.296;11.348;2022-08-01T00:45:19;3.30;;;3.10;;
1603;SDS011;795;49.296;11.348;2022-08-01T00:47:46;3.67;;;3.37;;
1603;SDS011;795;49.296;11.348;2022-08-01T00:50:20;3.67;;;3.37;;
1603;SDS011;795;49.296;11.348;2022-08-01T00:52:50;5.50;;;3.73;;
1603;SDS011;795;49.296;11.348;2022-08-01T00:55:17;3.50;;;3.23;;
1603;SDS011;795;49.296;11.348;2022-08-01T00:57:46;4.60;;;4.30;;
1603;SDS011;795;49.296;11.348;2022-08-01T01:00:28;3.57;;;3.37;;
1603;SDS011;795;49.296;11.348;2022-08-01T01:02:55;5.57;;;3.50;;
1603;SDS011;795;49.296;11.348;2022-08-01T01:05:22;3.90;;;3.37;;
1603;SDS011;795;49.296;11.348;2022-08-01T01:08:04;3.73;;;3.37;;
1603;SDS011;795;49.296;11.348;2022-08-01T01:10:52;4.60;;;4.20;;
1603;SDS011;795;49.296;11.348;2022-08-01T01:13:43;3.90;;;3.57;;
1603;SDS011;795;49.296;11.348;2022-08-01T01:16:20;4.27;;;3.80;;
1603;SDS011;795;49.296;11.348;2022-08-01T01:18:50;4.70;;;3.40;;
1603;SDS011;795;49.296;11.348;2022-08-01T01:24:17;5.00;;;3.87;;
1603;SDS011;795;49.296;11.348;2022-08-01T01:30:43;4.13;;;3.20;;
1603;SDS011;795;49.296;11.348;2022-08-01T01:33:17;3.90;;;3.60;;
1603;SDS011;795;49.296;11.348;2022-08-01T01:35:51;4.43;;;4.03;;
1603;SDS011;795;49.296;11.348;2022-08-01T01:38:27;4.67;;;4.27;;
1603;SDS011;795;49.296;11.348;2022-08-01T01:41:03;5.37;;;3.63;;
1603;SDS011;795;49.296;11.348;2022-08-01T01:43:32;3.60;;;3.30;;
1603;SDS011;795;49.296;11.348;2022-08-01T01:46:03;3.80;;;3.50;;
1603;SDS011;795;49.296;11.348;2022-08-01T01:48:35;4.67;;;4.00;;
1603;SDS011;795;49.296;11.348;2022-08-01T01:51:05;4.17;;;3.77;;
1603;SDS011;795;49.296;11.348;2022-08-01T01:53:33;4.40;;;4.00;;
1603;SDS011;795;49.296;11.348;2022-08-01T01:56:03;3.60;;;3.40;;
1603;SDS011;795;49.296;11.348;2022-08-01T01:58:31;3.70;;;3.40;;
1603;SDS011;795;49.296;11.348;2022-08-01T02:01:03;4.37;;;4.07;;
1603;SDS011;795;49.296;11.348;2022-08-01T02:03:39;4.47;;;4.07;;
1603;SDS011;795;49.296;11.348;2022-08-01T02:06:11;3.87;;;3.47;;
1603;SDS011;795;49.296;11.348;2022-08-01T02:08:42;4.27;;;3.90;;
1603;SDS011;795;49.296;11.348;2022-08-01T02:11:13;3.70;;;3.40;;
1603;SDS011;795;49.296;11.348;2022-08-01T02:13:48;4.67;;;4.27;;
1603;SDS011;795;49.296;11.348;2022-08-01T02:16:31;4.20;;;3.90;;
1603;SDS011;795;49.296;11.348;2022-08-01T02:19:05;4.33;;;4.03;;
1603;SDS011;795;49.296;11.348;2022-08-01T02:21:35;4.63;;;4.33;;
1603;SDS011;795;49.296;11.348;2022-08-01T02:24:13;4.83;;;4.00;;
1603;SDS011;795;49.296;11.348;2022-08-01T02:27:10;3.77;;;3.47;;
1603;SDS011;795;49.296;11.348;2022-08-01T02:30:09;4.73;;;4.37;;
1603;SDS011;795;49.296;11.348;2022-08-01T02:32:47;4.47;;;4.10;;
1603;SDS011;795;49.296;11.348;2022-08-01T02:35:28;4.00;;;3.60;;
1603;SDS011;795;49.296;11.348;2022-08-01T02:38:22;3.90;;;3.60;;
1603;SDS011;795;49.296;11.348;2022-08-01T02:40:54;4.40;;;4.00;;
1603;SDS011;795;49.296;11.348;2022-08-01T02:43:28;4.33;;;4.00;;
1603;SDS011;795;49.296;11.348;2022-08-01T02:46:02;4.90;;;4.50;;
1603;SDS011;795;49.296;11.348;2022-08-01T02:48:37;4.37;;;4.07;;
1603;SDS011;795;49.296;11.348;2022-08-01T02:51:08;4.13;;;3.90;;
1603;SDS011;795;49.296;11.348;2022-08-01T02:53:38;4.73;;;4.33;;
1603;SDS011;795;49.296;11.348;2022-08-01T02:56:10;4.73;;;4.30;;
1603;SDS011;795;49.296;11.348;2022-08-01T02:58:41;7.00;;;4.47;;
1603;SDS011;795;49.296;11.348;2022-08-01T03:01:10;5.17;;;3.70;;
1603;SDS011;795;49.296;11.348;2022-08-01T03:03:45;4.50;;;4.10;;
1603;SDS011;795;49.296;11.348;2022-08-01T03:06:12;4.03;;;3.80;;
1603;SDS011;795;49.296;11.348;2022-08-01T03:08:42;3.93;;;3.63;;
1603;SDS011;795;49.296;11.348;2022-08-01T03:11:14;5.17;;;3.83;;
1603;SDS011;795;49.296;11.348;2022-08-01T03:13:44;7.47;;;4.20;;
1603;SDS011;795;49.296;11.348;2022-08-01T03:16:15;4.70;;;3.70;;
1603;SDS011;795;49.296;11.348;2022-08-01T03:18:47;4.20;;;3.90;;
1603;SDS011;795;49.296;11.348;2022-08-01T03:21:19;6.00;;;4.63;;
1603;SDS011;795;49.296;11.348;2022-08-01T03:23:49;4.87;;;4.47;;
1603;SDS011;795;49.296;11.348;2022-08-01T03:26:26;4.73;;;4.20;;
1603;SDS011;795;49.296;11.348;2022-08-01T03:28:59;4.10;;;3.87;;
1603;SDS011;795;49.296;11.348;2022-08-01T03:31:43;5.33;;;4.10;;
1603;SDS011;795;49.296;11.348;2022-08-01T03:34:15;5.30;;;4.90;;
1603;SDS011;795;49.296;11.348;2022-08-01T03:39:48;4.70;;;4.40;;
1603;SDS011;795;49.296;11.348;2022-08-01T03:42:33;4.70;;;4.30;;
1603;SDS011;795;49.296;11.348;2022-08-01T03:45:15;5.00;;;4.63;;
1603;SDS011;795;49.296;11.348;2022-08-01T03:48:00;5.67;;;4.80;;
1603;SDS011;795;49.296;11.348;2022-08-01T03:50:35;4.90;;;4.40;;
1603;SDS011;795;49.296;11.348;2022-08-01T03:53:10;4.73;;;4.40;;
1603;SDS011;795;49.296;11.348;2022-08-01T03:55:41;5.87;;;3.80;;
1603;SDS011;795;49.296;11.348;2022-08-01T03:58:10;4.60;;;3.70;;
1603;SDS011;795;49.296;11.348;2022-08-01T04:00:39;4.00;;;3.70;;
1603;SDS011;795;49.296;11.348;2022-08-01T04:03:08;6.90;;;4.73;;
1603;SDS011;795;49.296;11.348;2022-08-01T04:05:41;4.60;;;4.30;;
1603;SDS011;795;49.296;11.348;2022-08-01T04:08:09;5.17;;;4.60;;
1603;SDS011;795;49.296;11.348;2022-08-01T04:10:37;4.77;;;4.37;;
1603;SDS011;795;49.296;11.348;2022-08-01T04:13:04;5.70;;;4.40;;
1603;SDS011;795;49.296;11.348;2022-08-01T04:15:31;6.13;;;4.37;;
1603;SDS011;795;49.296;11.348;2022-08-01T04:17:59;4.53;;;4.13;;
1603;SDS011;795;49.296;11.348;2022-08-01T04:20:26;4.93;;;4.27;;
1603;SDS011;795;49.296;11.348;2022-08-01T04:22:53;7.80;;;4.33;;
1603;SDS011;795;49.296;11.348;2022-08-01T04:25:25;4.53;;;4.23;;
1603;SDS011;795;49.296;11.348;2022-08-01T04:28:00;6.70;;;4.60;;
1603;SDS011;795;49.296;11.348;2022-08-01T04:30:31;4.77;;;4.47;;
1603;SDS011;795;49.296;11.348;2022-08-01T04:33:03;4.47;;;4.07;;
1603;SDS011;795;49.296;11.348;2022-08-01T04:35:36;4.67;;;4.27;;
1603;SDS011;795;49.296;11.348;2022-08-01T04:38:29;6.10;;;4.03;;
1603;SDS011;795;49.296;11.348;2022-08-01T04:41:02;4.53;;;3.83;;
1603;SDS011;795;49.296;11.348;2022-08-01T04:43:34;4.77;;;3.83;;
1603;SDS011;795;49.296;11.348;2022-08-01T04:46:09;3.77;;;3.40;;
1603;SDS011;795;49.296;11.348;2022-08-01T04:48:39;5.50;;;4.60;;
1603;SDS011;795;49.296;11.348;2022-08-01T04:51:13;4.10;;;3.80;;
1603;SDS011;795;49.296;11.348;2022-08-01T04:53:43;7.63;;;4.40;;
1603;SDS011;795;49.296;11.348;2022-08-01T04:56:14;4.07;;;3.73;;
1603;SDS011;795;49.296;11.348;2022-08-01T04:58:41;3.60;;;3.40;;
1603;SDS011;795;49.296;11.348;2022-08-01T05:01:10;4.30;;;3.80;;
1603;SDS011;795;49.296;11.348;2022-08-01T05:03:37;5.43;;;4.10;;
1603;SDS011;795;49.296;11.348;2022-08-01T05:06:05;4.37;;;3.97;;
1603;SDS011;795;49.296;11.348;2022-08-01T05:08:32;4.83;;;4.53;;
1603;SDS011;795;49.296;11.348;2022-08-01T05:10:59;4.10;;;3.80;;
1603;SDS011;795;49.296;11.348;2022-08-01T05:13:27;4.73;;;4.23;;
1603;SDS011;795;49.296;11.348;2022-08-01T05:15:54;3.53;;;3.33;;
1603;SDS011;795;49.296;11.348;2022-08-01T05:18:21;3.80;;;3.50;;
1603;SDS011;795;49.296;11.348;2022-08-01T05:20:53;3.80;;;3.20;;
1603;SDS011;795;49.296;11.348;2022-08-01T05:23:20;3.50;;;3.20;;
1603;SDS011;795;49.296;11.348;2022-08-01T05:26:07;3.73;;;3.40;;
1603;SDS011;795;49.296;11.348;2022-08-01T05:28:34;3.30;;;3.00;;
1603;SDS011;795;49.296;11.348;2022-08-01T05:31:02;3.20;;;3.00;;
1603;SDS011;795;49.296;11.348;2022-08-01T05:33:29;3.70;;;3.40;;
1603;SDS011;795;49.296;11.348;2022-08-01T05:35:56;3.13;;;2.90;;
1603;SDS011;795;49.296;11.348;2022-08-01T05:38:23;3.17;;;2.93;;
1603;SDS011;795;49.296;11.348;2022-08-01T05:40:50;3.10;;;2.90;;
1603;SDS011;795;49.296;11.348;2022-08-01T05:43:17;3.63;;;2.97;;
1603;SDS011;795;49.296;11.348;2022-08-01T05:45:44;3.03;;;2.60;;
1603;SDS011;795;49.296;11.348;2022-08-01T05:48:12;3.07;;;2.77;;
1603;SDS011;795;49.296;11.348;2022-08-01T05:50:39;3.70;;;2.83;;
1603;SDS011;795;49.296;11.348;2022-08-01T05:53:06;2.80;;;2.53;;
1603;SDS011;795;49.296;11.348;2022-08-01T05:55:34;3.17;;;2.97;;
1603;SDS011;795;49.296;11.348;2022-08-01T05:58:01;4.40;;;2.70;;
1603;SDS011;795;49.296;11.348;2022-08-01T06:00:29;3.10;;;2.80;;
1603;SDS011;795;49.296;11.348;2022-08-01T06:02:56;2.90;;;2.70;;
1603;SDS011;795;49.296;11.348;2022-08-01T06:05:23;3.23;;;2.93;;
1603;SDS011;795;49.296;11.348;2022-08-01T06:07:50;2.83;;;2.63;;
1603;SDS011;795;49.296;11.348;2022-08-01T06:10:17;3.40;;;3.10;;
1603;SDS011;795;49.296;11.348;2022-08-01T06:12:44;3.80;;;2.50;;
1603;SDS011;795;49.296;11.348;2022-08-01T06:15:11;2.93;;;2.73;;
1603;SDS011;795;49.296;11.348;2022-08-01T06:17:38;3.20;;;2.70;;
1603;SDS011;795;49.296;11.348;2022-08-01T06:20:05;6.67;;;2.83;;
1603;SDS011;795;49.296;11.348;2022-08-01T06:22:34;3.30;;;2.20;;
1603;SDS011;795;49.296;11.348;2022-08-01T06:25:01;4.00;;;2.63;;
1603;SDS011;795;49.296;11.348;2022-08-01T06:27:29;2.40;;;2.10;;
1603;SDS011;795;49.296;11.348;2022-08-01T06:29:56;2.23;;;2.10;;
1603;SDS011;795;49.296;11.348;2022-08-01T06:32:23;2.57;;;2.37;;
1603;SDS011;795;49.296;11.348;2022-08-01T06:34:52;3.50;;;3.23;;
1603;SDS011;795;49.296;11.348;2022-08-01T06:37:21;2.23;;;2.03;;
1603;SDS011;795;49.296;11.348;2022-08-01T06:39:49;2.53;;;2.33;;
1603;SDS011;795;49.296;11.348;2022-08-01T06:42:16;2.07;;;1.97;;
1603;SDS011;795;49.296;11.348;2022-08-01T06:44:43;4.27;;;2.17;;
1603;SDS011;795;49.296;11.348;2022-08-01T06:47:11;3.73;;;2.17;;
1603;SDS011;795;49.296;11.348;2022-08-01T06:49:38;3.07;;;2.47;;
1603;SDS011;795;49.296;11.348;2022-08-01T06:52:05;2.67;;;2.17;;
1603;SDS011;795;49.296;11.348;2022-08-01T06:54:33;1.83;;;1.73;;
1603;SDS011;795;49.296;11.348;2022-08-01T06:57:00;3.40;;;2.30;;
1603;SDS011;795;49.296;11.348;2022-08-01T06:59:31;2.37;;;2.20;;
1603;SDS011;795;49.296;11.348;2022-08-01T07:01:59;1.93;;;1.83;;
1603;SDS011;795;49.296;11.348;2022-08-01T07:04:27;2.80;;;2.00;;
1603;SDS011;795;49.296;11.348;2022-08-01T07:06:54;3.63;;;2.83;;
1603;SDS011;795;49.296;11.348;2022-08-01T07:09:22;1.97;;;1.77;;
1603;SDS011;795;49.296;11.348;2022-08-01T07:11:49;2.70;;;2.50;;
1603;SDS011;795;49.296;11.348;2022-08-01T07:14:18;2.73;;;2.10;;
1603;SDS011;795;49.296;11.348;2022-08-01T07:16:47;2.03;;;1.93;;
1603;SDS011;795;49.296;11.348;2022-08-01T07:19:16;3.37;;;2.10;;
1603;SDS011;795;49.296;11.348;2022-08-01T07:21:45;2.37;;;2.20;;
1603;SDS011;795;49.296;11.348;2022-08-01T07:24:16;1.93;;;1.80;;
1603;SDS011;795;49.296;11.348;2022-08-01T07:26:46;3.33;;;2.10;;
1603;SDS011;795;49.296;11.348;2022-08-01T07:29:20;3.90;;;2.53;;
1603;SDS011;795;49.296;11.348;2022-08-01T07:31:56;4.23;;;2.17;;
1603;SDS011;795;49.296;11.348;2022-08-01T07:34:24;2.10;;;1.90;;
1603;SDS011;795;49.296;11.348;2022-08-01T07:36:52;6.33;;;1.90;;
1603;SDS011;795;49.296;11.348;2022-08-01T07:39:19;1.97;;;1.87;;
1603;SDS011;795;49.296;11.348;2022-08-01T07:41:46;4.87;;;2.20;;
1603;SDS011;795;49.296;11.348;2022-08-01T07:44:34;4.03;;;1.80;;
1603;SDS011;795;49.296;11.348;2022-08-01T07:47:03;2.93;;;2.30;;
1603;SDS011;795;49.296;11.348;2022-08-01T07:49:31;2.00;;;1.90;;
1603;SDS011;795;49.296;11.348;2022-08-01T07:52:05;2.90;;;2.03;;
1603;SDS011;795;49.296;11.348;2022-08-01T07:54:33;2.37;;;2.20;;
1603;SDS011;795;49.296;11.348;2022-08-01T07:57:01;2.20;;;1.83;;
1603;SDS011;795;49.296;11.348;2022-08-01T07:59:29;2.97;;;1.93;;
1603;SDS011;795;49.296;11.348;2022-08-01T08:03:42;2.30;;;2.10;;
1603;SDS011;795;49.296;11.348;2022-08-01T08:06:10;3.93;;;2.10;;
1603;SDS011;795;49.296;11.348;2022-08-01T08:08:36;2.23;;;2.00;;
1603;SDS011;795;49.296;11.348;2022-08-01T08:11:04;2.40;;;2.20;;
1603;SDS011;795;49.296;11.348;2022-08-01T08:13:31;2.60;;;2.30;;
1603;SDS011;795;49.296;11.348;2022-08-01T08:15:58;5.80;;;2.40;;
1603;SDS011;795;49.296;11.348;2022-08-01T08:18:25;3.43;;;2.17;;
1603;SDS011;795;49.296;11.348;2022-08-01T08:20:52;2.10;;;1.67;;
1603;SDS011;795;49.296;11.348;2022-08-01T08:23:19;6.67;;;2.40;;
1603;SDS011;795;49.296;11.348;2022-08-01T08:26:09;2.50;;;1.90;;
1603;SDS011;795;49.296;11.348;2022-08-01T08:28:37;3.73;;;1.93;;
1603;SDS011;795;49.296;11.348;2022-08-01T08:31:06;2.70;;;1.90;;
1603;SDS011;795;49.296;11.348;2022-08-01T08:33:51;1.70;;;1.60;;
1603;SDS011;795;49.296;11.348;2022-08-01T08:36:18;3.97;;;1.80;;
1603;SDS011;795;49.296;11.348;2022-08-01T08:38:46;2.27;;;2.07;;
1603;SDS011;795;49.296;11.348;2022-08-01T08:41:12;2.23;;;1.87;;
1603;SDS011;795;49.296;11.348;2022-08-01T08:43:46;4.83;;;2.40;;
1603;SDS011;795;49.296;11.348;2022-08-01T08:46:14;3.20;;;2.00;;
1603;SDS011;795;49.296;11.348;2022-08-01T08:48:42;2.03;;;1.90;;
1603;SDS011;795;49.296;11.348;2022-08-01T08:51:09;2.17;;;1.70;;
1603;SDS011;795;49.296;11.348;2022-08-01T08:53:39;2.43;;;2.10;;
1603;SDS011;795;49.296;11.348;2022-08-01T08:56:13;2.90;;;1.53;;
1603;SDS011;795;49.296;11.348;2022-08-01T08:58:42;2.23;;;1.70;;
1603;SDS011;795;49.296;11.348;2022-08-01T09:01:11;3.13;;;1.50;;
1603;SDS011;795;49.296;11.348;2022-08-01T09:03:39;3.00;;;1.87;;
1603;SDS011;795;49.296;11.348;2022-08-01T09:06:07;1.57;;;1.47;;
1603;SDS011;795;49.296;11.348;2022-08-01T09:08:34;2.93;;;1.80;;
1603;SDS011;795;49.296;11.348;2022-08-01T09:11:01;2.60;;;1.30;;
1603;SDS011;795;49.296;11.348;2022-08-01T09:13:30;1.93;;;1.53;;
1603;SDS011;795;49.296;11.348;2022-08-01T09:15:57;2.83;;;1.30;;
1603;SDS011;795;49.296;11.348;2022-08-01T09:18:33;1.70;;;1.30;;
1603;SDS011;795;49.296;11.348;2022-08-01T09:21:20;1.70;;;1.60;;
1603;SDS011;795;49.296;11.348;2022-08-01T09:23:54;1.20;;;1.10;;
1603;SDS011;795;49.296;11.348;2022-08-01T09:26:30;1.00;;;1.00;;
1603;SDS011;795;49.296;11.348;2022-08-01T09:29:05;2.40;;;1.60;;
1603;SDS011;795;49.296;11.348;2022-08-01T09:32:06;2.33;;;1.60;;
1603;SDS011;795;49.296;11.348;2022-08-01T09:34:41;2.60;;;1.90;;
1603;SDS011;795;49.296;11.348;2022-08-01T09:37:08;2.10;;;1.70;;
1603;SDS011;795;49.296;11.348;2022-08-01T09:39:36;3.33;;;1.80;;
1603;SDS011;795;49.296;11.348;2022-08-01T09:42:18;4.33;;;1.77;;
1603;SDS011;795;49.296;11.348;2022-08-01T09:44:54;5.33;;;1.70;;
1603;SDS011;795;49.296;11.348;2022-08-01T09:47:21;2.60;;;2.10;;
1603;SDS011;795;49.296;11.348;2022-08-01T09:50:04;5.33;;;2.17;;
1603;SDS011;795;49.296;11.348;2022-08-01T09:52:36;3.87;;;1.70;;
1603;SDS011;795;49.296;11.348;2022-08-01T09:55:06;2.27;;;1.70;;
1603;SDS011;795;49.296;11.348;2022-08-01T09:57:35;2.03;;;1.93;;
1603;SDS011;795;49.296;11.348;2022-08-01T10:00:03;2.77;;;1.80;;
1603;SDS011;795;49.296;11.348;2022-08-01T10:02:32;2.40;;;2.17;;
1603;SDS011;795;49.296;11.348;2022-08-01T10:05:06;3.37;;;1.87;;
1603;SDS011;795;49.296;11.348;2022-08-01T10:07:59;2.20;;;1.80;;
1603;SDS011;795;49.296;11.348;2022-08-01T10:10:33;2.17;;;2.00;;
1603;SDS011;795;49.296;11.348;2022-08-01T10:13:02;4.17;;;1.83;;
1603;SDS011;795;49.296;11.348;2022-08-01T10:15:35;6.00;;;2.07;;
1603;SDS011;795;49.296;11.348;2022-08-01T10:18:04;1.83;;;1.73;;
1603;SDS011;795;49.296;11.348;2022-08-01T10:20:51;2.40;;;1.63;;
1603;SDS011;795;49.296;11.348;2022-08-01T10:23:24;2.07;;;1.87;;
1603;SDS011;795;49.296;11.348;2022-08-01T10:26:05;2.27;;;1.53;;
1603;SDS011;795;49.296;11.348;2022-08-01T10:28:36;1.83;;;1.73;;
1603;SDS011;795;49.296;11.348;2022-08-01T10:31:07;1.43;;;1.33;;
1603;SDS011;795;49.296;11.348;2022-08-01T10:33:39;4.50;;;1.70;;
1603;SDS011;795;49.296;11.348;2022-08-01T10:36:19;1.63;;;1.53;;
1603;SDS011;795;49.296;11.348;2022-08-01T10:38:47;2.00;;;1.60;;
1603;SDS011;795;49.296;11.348;2022-08-01T10:41:16;2.80;;;1.83;;
1603;SDS011;795;49.296;11.348;2022-08-01T10:43:45;2.70;;;2.00;;
1603;SDS011;795;49.296;11.348;2022-08-01T10:46:12;1.60;;;1.50;;
1603;SDS011;795;49.296;11.348;2022-08-01T10:51:27;1.80;;;1.70;;
1603;SDS011;795;49.296;11.348;2022-08-01T10:54:15;1.80;;;1.70;;
1603;SDS011;795;49.296;11.348;2022-08-01T10:56:46;1.20;;;1.10;;
1603;SDS011;795;49.296;11.348;2022-08-01T10:59:20;2.13;;;1.30;;
1603;SDS011;795;49.296;11.348;2022-08-01T11:02:28;2.50;;;1.40;;
1603;SDS011;795;49.296;11.348;2022-08-01T11:05:04;1.60;;;1.50;;
1603;SDS011;795;49.296;11.348;2022-08-01T11:07:49;1.80;;;1.30;;
1603;SDS011;795;49.296;11.348;2022-08-01T11:10:40;1.80;;;1.40;;
1603;SDS011;795;49.296;11.348;2022-08-01T11:13:12;3.90;;;1.23;;
1603;SDS011;795;49.296;11.348;2022-08-01T11:15:39;3.20;;;1.43;;
1603;SDS011;795;49.296;11.348;2022-08-01T11:20:59;2.30;;;1.43;;
1603;SDS011;795;49.296;11.348;2022-08-01T11:23:49;3.00;;;1.43;;
1603;SDS011;795;49.296;11.348;2022-08-01T11:26:19;1.60;;;1.50;;
1603;SDS011;795;49.296;11.348;2022-08-01T11:29:11;1.40;;;1.30;;
1603;SDS011;795;49.296;11.348;2022-08-01T11:31:47;2.00;;;1.50;;
1603;SDS011;795;49.296;11.348;2022-08-01T11:34:14;2.53;;;1.50;;
1603;SDS011;795;49.296;11.348;2022-08-01T11:36:42;1.60;;;1.50;;
1603;SDS011;795;49.296;11.348;2022-08-01T11:39:25;2.10;;;1.20;;
1603;SDS011;795;49.296;11.348;2022-08-01T11:41:52;2.40;;;1.47;;
1603;SDS011;795;49.296;11.348;2022-08-01T11:44:24;1.40;;;1.30;;
1603;SDS011;795;49.296;11.348;2022-08-01T11:46:56;1.40;;;1.30;;
1603;SDS011;795;49.296;11.348;2022-08-01T11:52:09;1.40;;;1.30;;
1603;SDS011;795;49.296;11.348;2022-08-01T11:54:58;2.37;;;1.50;;
1603;SDS011;795;49.296;11.348;2022-08-01T11:57:28;1.40;;;1.20;;
1603;SDS011;795;49.296;11.348;2022-08-01T12:00:09;1.93;;;1.43;;
1603;SDS011;795;49.296;11.348;2022-08-01T12:02:57;1.53;;;1.43;;
1603;SDS011;795;49.296;11.348;2022-08-01T12:05:48;1.93;;;1.73;;
1603;SDS011;795;49.296;11.348;2022-08-01T12:08:27;1.77;;;1.27;;
1603;SDS011;795;49.296;11.348;2022-08-01T12:11:04;1.47;;;1.37;;
1603;SDS011;795;49.296;11.348;2022-08-01T12:13:42;1.27;;;1.17;;
1603;SDS011;795;49.296;11.348;2022-08-01T12:16:13;1.60;;;1.43;;
1603;SDS011;795;49.296;11.348;2022-08-01T12:18:46;1.70;;;1.43;;
1603;SDS011;795;49.296;11.348;2022-08-01T12:21:17;1.87;;;1.40;;
1603;SDS011;795;49.296;11.348;2022-08-01T12:23:59;2.27;;;1.37;;
1603;SDS011;795;49.296;11.348;2022-08-01T12:26:43;1.53;;;1.30;;
1603;SDS011;795;49.296;11.348;2022-08-01T12:29:30;0.80;;;0.80;;
1603;SDS011;795;49.296;11.348;2022-08-01T12:32:25;2.50;;;1.13;;
1603;SDS011;795;49.296;11.348;2022-08-01T12:37:45;1.27;;;1.17;;
1603;SDS011;795;49.296;11.348;2022-08-01T12:40:27;0.93;;;0.80;;
1603;SDS011;795;49.296;11.348;2022-08-01T12:43:09;1.50;;;1.40;;
1603;SDS011;795;49.296;11.348;2022-08-01T12:45:58;2.20;;;1.40;;
1603;SDS011;795;49.296;11.348;2022-08-01T12:48:30;1.30;;;1.20;;
1603;SDS011;795;49.296;11.348;2022-08-01T12:51:02;3.20;;;1.27;;
1603;SDS011;795;49.296;11.348;2022-08-01T12:53:34;1.20;;;1.10;;
1603;SDS011;795;49.296;11.348;2022-08-01T12:56:07;2.27;;;1.20;;
1603;SDS011;795;49.296;11.348;2022-08-01T12:58:39;1.40;;;1.30;;
1603;SDS011;795;49.296;11.348;2022-08-01T13:01:10;2.63;;;1.07;;
1603;SDS011;795;49.296;11.348;2022-08-01T13:03:39;5.33;;;1.33;;
1603;SDS011;795;49.296;11.348;2022-08-01T13:06:10;4.87;;;1.10;;
1603;SDS011;795;49.296;11.348;2022-08-01T13:08:42;1.60;;;1.50;;
1603;SDS011;795;49.296;11.348;2022-08-01T13:11:11;1.27;;;1.17;;
1603;SDS011;795;49.296;11.348;2022-08-01T13:16:17;4.27;;;1.23;;
1603;SDS011;795;49.296;11.348;2022-08-01T13:18:59;1.37;;;1.27;;
1603;SDS011;795;49.296;11.348;2022-08-01T13:21:27;1.97;;;1.63;;
1603;SDS011;795;49.296;11.348;2022-08-01T13:24:22;1.30;;;1.20;;
1603;SDS011;795;49.296;11.348;2022-08-01T13:26:56;1.80;;;1.47;;
1603;SDS011;795;49.296;11.348;2022-08-01T13:29:31;1.83;;;1.27;;
1603;SDS011;795;49.296;11.348;2022-08-01T13:32:18;1.70;;;1.57;;
1603;SDS011;795;49.296;11.348;2022-08-01T13:35:02;2.07;;;1.50;;
1603;SDS011;795;49.296;11.348;2022-08-01T13:37:34;3.40;;;1.20;;
1603;SDS011;795;49.296;11.348;2022-08-01T13:40:04;1.70;;;1.60;;
1603;SDS011;795;49.296;11.348;2022-08-01T13:42:34;2.27;;;1.77;;
1603;SDS011;795;49.296;11.348;2022-08-01T13:45:02;1.60;;;1.50;;
1603;SDS011;795;49.296;11.348;2022-08-01T13:47:40;4.13;;;1.50;;
1603;SDS011;795;49.296;11.348;2022-08-01T13:50:30;1.60;;;1.50;;
1603;SDS011;795;49.296;11.348;2022-08-01T13:52:58;1.30;;;1.20;;
1603;SDS011;795;49.296;11.348;2022-08-01T13:55:25;1.73;;;1.30;;
1603;SDS011;795;49.296;11.348;2022-08-01T13:57:57;1.20;;;1.10;;
1603;SDS011;795;49.296;11.348;2022-08-01T14:00:24;1.33;;;1.10;;
1603;SDS011;795;49.296;11.348;2022-08-01T14:02:51;1.97;;;1.57;;
1603;SDS011;795;49.296;11.348;2022-08-01T14:05:18;1.40;;;1.30;;
1603;SDS011;795;49.296;11.348;2022-08-01T14:07:45;2.57;;;1.50;;
1603;SDS011;795;49.296;11.348;2022-08-01T14:10:14;2.63;;;1.40;;
1603;SDS011;795;49.296;11.348;2022-08-01T14:12:45;1.57;;;1.47;;
1603;SDS011;795;49.296;11.348;2022-08-01T14:15:14;1.80;;;1.70;;
1603;SDS011;795;49.296;11.348;2022-08-01T14:18:04;11.73;;;2.40;;
1603;SDS011;795;49.296;11.348;2022-08-01T14:20:36;6.63;;;1.50;;
1603;SDS011;795;49.296;11.348;2022-08-01T14:23:05;3.47;;;1.83;;
1603;SDS011;795;49.296;11.348;2022-08-01T14:25:37;1.57;;;1.37;;
1603;SDS011;795;49.296;11.348;2022-08-01T14:28:26;1.90;;;1.40;;
1603;SDS011;795;49.296;11.348;2022-08-01T14:30:54;2.10;;;1.20;;
1603;SDS011;795;49.296;11.348;2022-08-01T14:33:24;1.57;;;1.47;;
1603;SDS011;795;49.296;11.348;2022-08-01T14:35:52;1.77;;;1.30;;
1603;SDS011;795;49.296;11.348;2022-08-01T14:38:40;1.53;;;1.43;;
1603;SDS011;795;49.296;11.348;2022-08-01T14:41:11;1.73;;;1.40;;
1603;SDS011;795;49.296;11.348;2022-08-01T14:43:40;2.93;;;1.30;;
1603;SDS011;795;49.296;11.348;2022-08-01T14:46:08;1.50;;;1.37;;
1603;SDS011;795;49.296;11.348;2022-08-01T14:48:36;3.43;;;1.30;;
1603;SDS011;795;49.296;11.348;2022-08-01T14:51:03;1.67;;;1.57;;
1603;SDS011;795;49.296;11.348;2022-08-01T14:53:33;8.50;;;2.07;;
1603;SDS011;795;49.296;11.348;2022-08-01T14:56:03;2.30;;;1.33;;
1603;SDS011;795;49.296;11.348;2022-08-01T14:58:31;1.70;;;1.60;;
1603;SDS011;795;49.296;11.348;2022-08-01T15:00:59;1.53;;;1.43;;
1603;SDS011;795;49.296;11.348;2022-08-01T15:03:27;2.13;;;1.93;;
1603;SDS011;795;49.296;11.348;2022-08-01T15:05:54;1.50;;;1.40;;
1603;SDS011;795;49.296;11.348;2022-08-01T15:08:21;3.97;;;1.57;;
1603;SDS011;795;49.296;11.348;2022-08-01T15:10:48;1.67;;;1.43;;
1603;SDS011;795;49.296;11.348;2022-08-01T15:13:15;2.97;;;1.60;;
1603;SDS011;795;49.296;11.348;2022-08-01T15:15:42;5.43;;;1.33;;
1603;SDS011;795;49.296;11.348;2022-08-01T15:18:09;1.70;;;1.33;;
1603;SDS011;795;49.296;11.348;2022-08-01T15:20:36;3.43;;;1.83;;
1603;SDS011;795;49.296;11.348;2022-08-01T15:23:03;6.17;;;2.37;;
1603;SDS011;795;49.296;11.348;2022-08-01T15:25:30;3.53;;;2.50;;
1603;SDS011;795;49.296;11.348;2022-08-01T15:28:07;3.27;;;1.70;;
1603;SDS011;795;49.296;11.348;2022-08-01T15:30:38;1.60;;;1.30;;
1603;SDS011;795;49.296;11.348;2022-08-01T15:33:06;3.10;;;1.70;;
1603;SDS011;795;49.296;11.348;2022-08-01T15:35:33;1.33;;;1.23;;
1603;SDS011;795;49.296;11.348;2022-08-01T15:38:00;1.80;;;1.70;;
1603;SDS011;795;49.296;11.348;2022-08-01T15:40:28;1.30;;;1.20;;
1603;SDS011;795;49.296;11.348;2022-08-01T15:42:55;1.10;;;1.00;;
1603;SDS011;795;49.296;11.348;2022-08-01T15:45:22;1.57;;;1.47;;
1603;SDS011;795;49.296;11.348;2022-08-01T15:48:09;2.83;;;1.63;;
1603;SDS011;795;49.296;11.348;2022-08-01T15:50:37;1.40;;;1.30;;
1603;SDS011;795;49.296;11.348;2022-08-01T15:53:04;2.33;;;1.80;;
1603;SDS011;795;49.296;11.348;2022-08-01T15:55:36;6.50;;;4.80;;
1603;SDS011;795;49.296;11.348;2022-08-01T15:58:05;1.83;;;1.73;;
1603;SDS011;795;49.296;11.348;2022-08-01T16:00:36;1.50;;;1.40;;
1603;SDS011;795;49.296;11.348;2022-08-01T16:03:05;1.43;;;1.20;;
1603;SDS011;795;49.296;11.348;2022-08-01T16:05:36;2.10;;;1.90;;
1603;SDS011;795;49.296;11.348;2022-08-01T16:08:12;1.60;;;1.50;;
1603;SDS011;795;49.296;11.348;2022-08-01T16:10:39;1.10;;;1.10;;